Time;durP1;ratioP1;P1;durP2;ratioP2;P2;SDS_P1;SDS_P2;PMS_P1;PMS_P2;Temp;Humidity;BMP_temperature;BMP_pressure;BME280_temperature;BME280_humidity;BME280_pressure;Samples;Min_cycle;Max_cycle;Signal;HPM_P1;HPM_P2
2021/11/30 00:01:01;;;;;;;8.73;4.07;;;4.00;85.40;;;;;;4984048;28;20136;-75
2021/11/30 00:03:36;;;;;;;7.32;3.40;;;4.00;85.30;;;;;;4979504;28;20479;-77
2021/11/30 00:06:04;;;;;;;9.02;4.65;;;4.00;85.30;;;;;;4987364;28;20072;-75
2021/11/30 00:08:32;;;;;;;8.73;3.60;;;4.00;85.30;;;;;;4984446;28;20082;-76
2021/11/30 00:11:07;;;;;;;7.22;3.90;;;4.00;85.30;;;;;;4986079;28;20499;-77
2021/11/30 00:13:42;;;;;;;6.53;3.53;;;4.00;85.40;;;;;;4986708;28;20108;-79
2021/11/30 00:16:13;;;;;;;8.88;3.53;;;4.00;85.50;;;;;;4985840;28;20066;-73
2021/11/30 00:18:42;;;;;;;7.50;3.08;;;4.00;85.50;;;;;;4986959;28;20138;-78
2021/11/30 00:21:11;;;;;;;6.30;3.10;;;4.00;85.40;;;;;;4983800;28;20525;-78
2021/11/30 00:23:38;;;;;;;6.72;3.47;;;4.10;85.40;;;;;;4970480;28;20484;-77
2021/11/30 00:26:06;;;;;;;6.10;3.05;;;4.00;85.40;;;;;;4985014;28;20039;-77
2021/11/30 00:28:33;;;;;;;7.30;3.28;;;4.10;85.40;;;;;;4988059;28;20046;-80
2021/11/30 00:31:01;;;;;;;6.78;3.30;;;4.00;85.30;;;;;;4986224;28;21247;-75
2021/11/30 00:33:31;;;;;;;6.78;3.25;;;4.10;85.40;;;;;;4966782;28;20492;-75
2021/11/30 00:35:59;;;;;;;9.77;3.35;;;4.10;85.40;;;;;;4983186;28;20055;-77
2021/11/30 00:38:30;;;;;;;10.30;3.40;;;4.00;85.50;;;;;;4986348;28;20053;-77
2021/11/30 00:40:58;;;;;;;7.75;3.47;;;4.00;85.70;;;;;;4988221;28;20134;-72
2021/11/30 00:43:33;;;;;;;5.70;3.03;;;4.00;85.70;;;;;;5002055;28;20052;-78
2021/11/30 00:46:11;;;;;;;7.25;3.38;;;4.00;85.80;;;;;;5033994;28;20050;-76
2021/11/30 00:48:38;;;;;;;5.93;2.58;;;4.00;85.90;;;;;;4988716;28;20066;-78
2021/11/30 00:51:10;;;;;;;8.38;3.50;;;4.00;85.90;;;;;;4989112;28;20133;-79
2021/11/30 00:53:46;;;;;;;6.07;3.10;;;4.00;85.90;;;;;;4988139;28;20133;-75
2021/11/30 00:56:14;;;;;;;7.05;3.03;;;4.00;85.90;;;;;;4975938;28;20202;-78
2021/11/30 00:58:41;;;;;;;4.95;2.83;;;4.00;85.90;;;;;;4991054;28;20053;-78
2021/11/30 01:01:08;;;;;;;7.55;3.80;;;4.00;86.00;;;;;;4980754;28;20046;-75
2021/11/30 01:03:42;;;;;;;3.92;2.42;;;4.00;86.10;;;;;;4984405;28;20046;-80
2021/11/30 01:06:11;;;;;;;7.90;3.78;;;4.00;86.20;;;;;;4987042;28;20065;-76
2021/11/30 01:08:38;;;;;;;8.57;3.72;;;4.00;86.30;;;;;;4984722;28;20491;-77
2021/11/30 01:11:05;;;;;;;8.95;3.50;;;4.00;86.30;;;;;;4985578;28;20622;-77
2021/11/30 01:13:34;;;;;;;5.15;2.78;;;4.10;86.30;;;;;;4985914;28;20415;-78
2021/11/30 01:16:01;;;;;;;7.43;3.63;;;4.10;86.30;;;;;;4988137;28;20141;-77
2021/11/30 01:18:28;;;;;;;6.57;3.25;;;4.10;86.30;;;;;;4983089;28;20050;-79
2021/11/30 01:20:55;;;;;;;6.63;3.55;;;4.10;86.20;;;;;;4987656;28;20054;-79
2021/11/30 01:23:25;;;;;;;6.78;3.17;;;4.10;86.10;;;;;;4986311;28;20049;-78
2021/11/30 01:25:52;;;;;;;4.60;2.42;;;4.10;86.20;;;;;;4984069;28;20052;-77
2021/11/30 01:28:20;;;;;;;6.07;2.53;;;4.10;86.30;;;;;;4981361;28;20053;-77
2021/11/30 01:30:46;;;;;;;6.95;2.85;;;4.10;86.30;;;;;;4985194;28;20058;-80
2021/11/30 01:33:13;;;;;;;5.60;3.08;;;4.10;86.30;;;;;;4989895;28;20080;-81
2021/11/30 01:35:42;;;;;;;7.22;3.40;;;4.20;86.20;;;;;;4984183;28;20074;-83
2021/11/30 01:38:09;;;;;;;5.28;2.75;;;4.20;86.20;;;;;;4984612;28;20499;-80
2021/11/30 01:40:39;;;;;;;7.85;3.20;;;4.20;86.10;;;;;;4986157;28;20046;-80
2021/11/30 01:43:08;;;;;;;5.18;2.55;;;4.20;86.00;;;;;;4984979;28;20049;-77
2021/11/30 01:45:45;;;;;;;4.90;2.05;;;4.20;86.00;;;;;;4981537;28;20396;-78
2021/11/30 01:51:01;;;;;;;4.22;2.35;;;4.20;85.90;;;;;;4984641;28;20084;-77
2021/11/30 01:53:30;;;;;;;4.20;2.10;;;4.20;85.80;;;;;;4983271;28;20043;-77
2021/11/30 01:55:58;;;;;;;5.53;3.05;;;4.30;85.60;;;;;;4983897;28;20055;-79
2021/11/30 01:58:25;;;;;;;7.57;2.60;;;4.30;85.60;;;;;;4983574;28;20038;-77
2021/11/30 02:00:52;;;;;;;6.25;2.72;;;4.30;85.70;;;;;;4975134;28;20042;-78
2021/11/30 02:03:20;;;;;;;2.95;1.63;;;4.30;85.60;;;;;;4979991;28;20058;-78
2021/11/30 02:05:47;;;;;;;5.38;2.85;;;4.30;85.60;;;;;;4991776;28;20056;-76
2021/11/30 02:08:14;;;;;;;4.68;2.13;;;4.30;85.60;;;;;;4985661;28;20058;-77
2021/11/30 02:10:42;;;;;;;7.80;2.47;;;4.30;85.60;;;;;;4982593;28;20503;-79
2021/11/30 02:13:10;;;;;;;4.57;2.22;;;4.30;85.60;;;;;;4983649;28;20054;-78
2021/11/30 02:15:41;;;;;;;7.00;2.63;;;4.30;85.40;;;;;;4982541;28;20046;-77
2021/11/30 02:18:13;;;;;;;4.00;1.77;;;4.30;85.50;;;;;;4987144;28;20046;-82
2021/11/30 02:20:45;;;;;;;3.75;1.85;;;4.30;85.40;;;;;;4981688;28;20049;-76
2021/11/30 02:23:19;;;;;;;3.92;1.63;;;4.30;85.40;;;;;;4989102;28;20078;-77
2021/11/30 02:25:46;;;;;;;6.60;2.42;;;4.30;85.30;;;;;;4987603;28;20066;-80
2021/11/30 02:28:13;;;;;;;3.38;1.75;;;4.30;85.20;;;;;;4988969;28;20046;-77
2021/11/30 02:30:40;;;;;;;4.43;1.58;;;4.30;85.30;;;;;;4984799;28;20049;-82
2021/11/30 02:33:07;;;;;;;5.30;2.08;;;4.30;85.20;;;;;;4987505;28;20047;-79
2021/11/30 02:35:34;;;;;;;5.90;1.83;;;4.30;85.20;;;;;;4986742;28;20137;-78
2021/11/30 02:38:07;;;;;;;3.88;1.85;;;4.30;85.20;;;;;;4986193;28;20056;-77
2021/11/30 02:40:35;;;;;;;3.38;1.55;;;4.30;85.20;;;;;;4968723;28;20092;-78
2021/11/30 02:43:02;;;;;;;4.03;1.35;;;4.30;85.10;;;;;;4984961;28;20621;-76
2021/11/30 02:45:31;;;;;;;3.85;1.75;;;4.30;85.10;;;;;;4985013;28;20046;-78
2021/11/30 02:47:59;;;;;;;3.60;1.33;;;4.30;85.10;;;;;;4986029;28;20046;-80
2021/11/30 02:50:27;;;;;;;3.67;1.75;;;4.30;85.00;;;;;;4983063;28;20094;-78
2021/11/30 02:52:55;;;;;;;3.22;1.60;;;4.20;85.00;;;;;;4987026;28;20046;-77
2021/11/30 02:55:23;;;;;;;5.13;2.33;;;4.30;84.90;;;;;;4985350;28;20137;-77
2021/11/30 02:57:50;;;;;;;4.70;2.20;;;4.30;84.80;;;;;;4987864;28;20475;-77
2021/11/30 03:00:17;;;;;;;2.38;1.25;;;4.30;84.80;;;;;;4980884;28;20054;-80
2021/11/30 03:02:44;;;;;;;4.95;1.50;;;4.30;84.80;;;;;;4985203;28;20050;-80
2021/11/30 03:05:11;;;;;;;4.03;1.65;;;4.30;84.70;;;;;;4990447;28;20088;-79
2021/11/30 03:07:39;;;;;;;4.85;1.67;;;4.30;84.60;;;;;;4988898;28;20050;-81
2021/11/30 03:10:09;;;;;;;4.40;1.83;;;4.30;84.50;;;;;;4989502;28;20046;-79
2021/11/30 03:12:39;;;;;;;5.15;1.77;;;4.30;84.60;;;;;;4987742;28;20055;-79
2021/11/30 03:15:08;;;;;;;3.35;1.70;;;4.30;84.50;;;;;;4992986;28;20042;-76
2021/11/30 03:17:35;;;;;;;4.30;1.73;;;4.30;84.40;;;;;;4965596;28;20066;-76
2021/11/30 03:20:03;;;;;;;3.25;1.52;;;4.30;84.40;;;;;;4975912;28;21131;-79
2021/11/30 03:22:38;;;;;;;5.93;1.70;;;4.30;84.30;;;;;;4985451;28;20494;-79
2021/11/30 03:25:06;;;;;;;4.85;1.70;;;4.30;84.20;;;;;;4987370;28;20047;-78
2021/11/30 03:27:34;;;;;;;5.20;2.17;;;4.30;83.90;;;;;;4983601;28;20054;-76
2021/11/30 03:30:03;;;;;;;6.97;1.70;;;4.40;83.70;;;;;;4980163;28;20057;-78
2021/11/30 03:35:15;;;;;;;2.63;1.15;;;4.40;83.70;;;;;;4984456;28;20103;-82
2021/11/30 03:37:42;;;;;;;3.20;1.73;;;4.30;83.60;;;;;;4985213;28;20480;-77
2021/11/30 03:40:11;;;;;;;3.90;1.88;;;4.30;83.60;;;;;;4984563;28;20052;-73
2021/11/30 03:42:38;;;;;;;2.22;1.58;;;4.30;83.50;;;;;;4984665;28;20512;-78
2021/11/30 03:45:08;;;;;;;2.83;1.25;;;4.30;83.40;;;;;;4985685;28;20038;-76
2021/11/30 03:47:35;;;;;;;4.50;1.85;;;4.30;83.40;;;;;;4986113;28;20829;-79
2021/11/30 03:50:03;;;;;;;2.03;0.90;;;4.30;83.40;;;;;;4987716;28;20085;-79
2021/11/30 03:52:32;;;;;;;1.43;0.90;;;4.40;83.10;;;;;;4976130;28;20112;-77
2021/11/30 03:54:59;;;;;;;1.95;1.30;;;4.40;83.00;;;;;;4974955;28;20469;-76
2021/11/30 03:57:26;;;;;;;2.05;0.90;;;4.40;82.90;;;;;;4977577;28;20046;-80
2021/11/30 03:59:53;;;;;;;3.50;1.33;;;4.40;82.70;;;;;;4987089;28;20043;-78
2021/11/30 04:02:21;;;;;;;2.03;0.85;;;4.40;82.50;;;;;;4981539;28;20046;-75
2021/11/30 04:04:48;;;;;;;4.93;1.10;;;4.30;82.50;;;;;;4986260;28;20061;-78
2021/11/30 04:07:16;;;;;;;2.78;1.25;;;4.30;82.40;;;;;;4986934;28;20050;-77
2021/11/30 04:09:43;;;;;;;1.60;0.95;;;4.30;82.40;;;;;;4985421;28;20046;-78
2021/11/30 04:12:10;;;;;;;3.45;1.25;;;4.30;82.40;;;;;;4984754;28;20054;-79
2021/11/30 04:14:37;;;;;;;2.45;1.23;;;4.30;82.30;;;;;;4985737;28;20480;-78
2021/11/30 04:17:06;;;;;;;2.20;1.10;;;4.30;82.30;;;;;;4986547;28;20054;-80
2021/11/30 04:19:35;;;;;;;1.25;0.75;;;4.30;82.10;;;;;;4988427;28;20062;-77
2021/11/30 04:22:02;;;;;;;1.73;0.88;;;4.30;82.20;;;;;;4988871;28;20054;-79
2021/11/30 04:24:29;;;;;;;3.28;1.48;;;4.30;82.10;;;;;;4982288;28;20129;-78
2021/11/30 04:26:56;;;;;;;2.38;1.10;;;4.20;82.30;;;;;;4985477;28;20500;-77
2021/11/30 04:29:23;;;;;;;1.52;0.93;;;4.20;82.40;;;;;;4983300;28;20096;-78
2021/11/30 04:31:50;;;;;;;2.47;1.00;;;4.20;82.40;;;;;;4988838;28;20207;-76
2021/11/30 04:34:17;;;;;;;1.83;0.82;;;4.20;82.50;;;;;;4986694;28;20050;-80
2021/11/30 04:36:46;;;;;;;1.88;1.13;;;4.20;82.50;;;;;;4987013;28;20046;-77
2021/11/30 04:39:13;;;;;;;1.67;0.73;;;4.20;82.50;;;;;;4988799;28;20057;-78
2021/11/30 04:41:42;;;;;;;2.03;0.85;;;4.10;82.70;;;;;;4984661;28;20636;-78
2021/11/30 04:44:10;;;;;;;1.20;0.50;;;4.00;82.70;;;;;;4988857;28;20141;-77
2021/11/30 04:46:48;;;;;;;2.03;0.85;;;4.00;82.80;;;;;;4986597;28;20100;-77
2021/11/30 04:49:16;;;;;;;3.65;0.98;;;4.00;82.90;;;;;;4986691;28;20053;-76
2021/11/30 04:51:45;;;;;;;5.32;1.67;;;4.00;82.80;;;;;;4987715;28;20062;-78
2021/11/30 04:54:12;;;;;;;4.43;1.35;;;4.00;82.90;;;;;;4988188;28;20175;-79
2021/11/30 04:56:39;;;;;;;2.45;1.13;;;3.90;83.00;;;;;;4984418;28;20058;-74
2021/11/30 04:59:06;;;;;;;2.10;1.20;;;3.90;83.00;;;;;;4986478;28;20051;-80
2021/11/30 05:01:33;;;;;;;2.13;0.82;;;3.90;83.00;;;;;;4984200;28;20075;-78
2021/11/30 05:04:00;;;;;;;7.45;1.30;;;3.80;82.90;;;;;;4984067;28;20103;-78
2021/11/30 05:06:31;;;;;;;2.83;1.00;;;3.80;83.10;;;;;;4984574;28;20043;-78
2021/11/30 05:09:02;;;;;;;3.15;1.25;;;3.80;83.10;;;;;;4984239;28;20415;-80
2021/11/30 05:11:32;;;;;;;3.17;1.27;;;3.80;83.10;;;;;;4985048;28;20050;-77
2021/11/30 05:13:59;;;;;;;4.63;1.25;;;3.70;83.00;;;;;;4986669;28;20042;-79
2021/11/30 05:16:26;;;;;;;1.23;0.85;;;3.70;83.10;;;;;;4985250;28;20157;-78
2021/11/30 05:18:53;;;;;;;1.75;0.90;;;3.70;83.00;;;;;;4982844;28;20073;-77
2021/11/30 05:21:20;;;;;;;2.55;1.10;;;3.70;83.10;;;;;;4983370;28;20062;-78
2021/11/30 05:23:47;;;;;;;2.83;1.30;;;3.60;83.20;;;;;;4984395;28;20050;-76
2021/11/30 05:26:15;;;;;;;2.35;1.15;;;3.60;83.20;;;;;;4985996;28;20136;-76
2021/11/30 05:28:43;;;;;;;2.05;1.02;;;3.50;83.30;;;;;;4984984;28;20049;-78
2021/11/30 05:31:12;;;;;;;7.88;1.80;;;3.60;83.40;;;;;;4986321;28;20043;-79
2021/11/30 05:33:39;;;;;;;2.50;1.00;;;3.50;83.30;;;;;;4977738;28;20057;-76
2021/11/30 05:36:06;;;;;;;3.10;0.88;;;3.50;83.40;;;;;;4982028;28;20507;-79
2021/11/30 05:38:34;;;;;;;2.05;1.02;;;3.50;83.30;;;;;;4982065;28;20046;-78
2021/11/30 05:41:01;;;;;;;2.33;1.63;;;3.50;83.40;;;;;;4983898;28;20046;-77
2021/11/30 05:43:33;;;;;;;1.30;0.70;;;3.50;83.40;;;;;;4985457;28;20058;-78
2021/11/30 05:46:00;;;;;;;1.10;0.60;;;3.50;83.40;;;;;;4986562;28;20038;-78
2021/11/30 05:48:30;;;;;;;1.67;0.90;;;3.50;83.50;;;;;;4989629;28;20053;-75
2021/11/30 05:50:58;;;;;;;3.50;1.33;;;3.50;83.40;;;;;;4982206;28;20053;-78
2021/11/30 05:53:25;;;;;;;2.13;1.10;;;3.40;83.50;;;;;;4987410;28;20065;-78
2021/11/30 05:55:55;;;;;;;2.15;0.80;;;3.40;83.60;;;;;;4986490;28;20046;-78
2021/11/30 05:58:22;;;;;;;2.30;1.00;;;3.40;83.50;;;;;;4986205;28;20062;-78
2021/11/30 06:00:50;;;;;;;1.83;1.02;;;3.40;83.70;;;;;;4985165;28;20050;-76
2021/11/30 06:03:28;;;;;;;2.03;1.10;;;3.40;83.70;;;;;;4983392;28;20049;-78
2021/11/30 06:05:55;;;;;;;2.10;1.17;;;3.40;83.80;;;;;;4985647;28;20062;-78
2021/11/30 06:08:22;;;;;;;4.07;1.02;;;3.40;83.90;;;;;;4983816;28;20048;-77
2021/11/30 06:10:49;;;;;;;1.85;0.98;;;3.40;84.10;;;;;;4988453;28;20543;-75
2021/11/30 06:13:16;;;;;;;2.55;1.05;;;3.40;84.10;;;;;;4987961;28;20049;-77
2021/11/30 06:15:43;;;;;;;2.00;0.95;;;3.40;84.10;;;;;;4988143;28;20058;-80
2021/11/30 06:18:11;;;;;;;1.73;0.70;;;3.40;84.20;;;;;;4986327;28;20050;-75
2021/11/30 06:20:38;;;;;;;4.18;1.45;;;3.40;84.10;;;;;;4989825;28;20139;-76
2021/11/30 06:23:05;;;;;;;1.10;0.77;;;3.50;84.10;;;;;;4982663;28;20051;-78
2021/11/30 06:25:32;;;;;;;2.55;0.95;;;3.40;84.20;;;;;;4981934;28;20096;-79
2021/11/30 06:28:01;;;;;;;1.38;0.93;;;3.50;84.20;;;;;;4985425;28;20035;-79
2021/11/30 06:30:29;;;;;;;2.40;1.20;;;3.50;84.30;;;;;;4985615;28;20084;-77
2021/11/30 06:32:56;;;;;;;4.18;1.80;;;3.40;84.40;;;;;;4988851;28;20487;-78
2021/11/30 06:35:24;;;;;;;1.90;0.80;;;3.50;84.50;;;;;;4986027;28;20046;-78
2021/11/30 06:37:52;;;;;;;2.65;1.17;;;3.50;84.50;;;;;;4988464;28;20067;-78
2021/11/30 06:40:19;;;;;;;1.58;0.70;;;3.50;84.40;;;;;;4981463;28;20070;-79
2021/11/30 06:42:46;;;;;;;1.92;0.98;;;3.50;84.60;;;;;;4984861;28;20127;-79
2021/11/30 06:45:13;;;;;;;1.75;1.10;;;3.50;84.50;;;;;;4981866;28;20058;-76
2021/11/30 06:47:42;;;;;;;2.30;1.02;;;3.50;84.50;;;;;;4983788;28;20034;-77
2021/11/30 06:50:10;;;;;;;2.50;0.98;;;3.50;84.60;;;;;;4985969;28;20062;-79
2021/11/30 06:52:39;;;;;;;1.65;0.85;;;3.50;84.60;;;;;;4983620;28;20047;-79
2021/11/30 06:55:07;;;;;;;1.33;0.93;;;3.50;84.50;;;;;;4983707;28;20054;-78
2021/11/30 06:57:34;;;;;;;1.77;1.17;;;3.50;84.60;;;;;;4984542;28;20050;-78
2021/11/30 07:00:05;;;;;;;2.35;1.10;;;3.50;84.50;;;;;;4980312;28;20050;-72
2021/11/30 07:02:34;;;;;;;1.33;0.90;;;3.50;84.70;;;;;;4980744;28;20049;-78
2021/11/30 07:05:12;;;;;;;2.22;1.15;;;3.50;84.50;;;;;;4984244;28;20074;-77
2021/11/30 07:07:48;;;;;;;3.83;1.60;;;3.50;84.50;;;;;;4986404;28;20130;-77
2021/11/30 07:10:33;;;;;;;3.53;1.05;;;3.50;84.60;;;;;;4984735;28;20055;-76
2021/11/30 07:13:13;;;;;;;2.20;1.17;;;3.40;84.60;;;;;;4986641;28;20082;-75
2021/11/30 07:15:47;;;;;;;2.65;1.10;;;3.40;84.60;;;;;;4983588;28;20050;-77
2021/11/30 07:18:15;;;;;;;3.63;1.70;;;3.40;84.70;;;;;;4983287;28;20061;-78
2021/11/30 07:20:43;;;;;;;1.77;0.95;;;3.40;84.70;;;;;;4987585;28;20765;-78
2021/11/30 07:23:12;;;;;;;3.85;1.25;;;3.40;84.80;;;;;;4979314;28;20463;-77
2021/11/30 07:25:39;;;;;;;2.22;1.30;;;3.30;84.80;;;;;;4981140;28;20133;-75
2021/11/30 07:28:06;;;;;;;2.13;1.58;;;3.40;84.90;;;;;;4987098;28;20054;-78
2021/11/30 07:30:34;;;;;;;2.03;1.08;;;3.40;84.80;;;;;;4987713;28;20058;-76
2021/11/30 07:33:02;;;;;;;2.92;1.00;;;3.40;84.80;;;;;;4962593;28;20065;-78
2021/11/30 07:35:33;;;;;;;2.72;1.08;;;3.50;84.80;;;;;;4985465;28;20042;-76
2021/11/30 07:38:00;;;;;;;2.10;0.80;;;3.50;84.70;;;;;;4986087;28;20046;-78
2021/11/30 07:40:32;;;;;;;1.90;0.88;;;3.50;84.70;;;;;;4985348;28;20053;-78
2021/11/30 07:42:59;;;;;;;2.03;1.02;;;3.40;84.80;;;;;;4986184;28;20052;-78
2021/11/30 07:45:26;;;;;;;2.25;1.15;;;3.40;85.00;;;;;;4988625;28;20051;-77
2021/11/30 07:47:53;;;;;;;1.85;1.00;;;3.50;84.80;;;;;;4988617;28;20368;-77
2021/11/30 07:50:19;;;;;;;1.35;0.82;;;3.40;84.90;;;;;;4989650;28;20050;-78
2021/11/30 07:52:46;;;;;;;2.65;1.30;;;3.50;84.90;;;;;;4990097;28;20480;-77
2021/11/30 07:55:16;;;;;;;2.35;1.08;;;3.40;84.90;;;;;;4986343;28;20141;-78
2021/11/30 07:57:46;;;;;;;1.63;1.00;;;3.40;84.80;;;;;;4988033;28;20061;-79
2021/11/30 08:00:16;;;;;;;2.50;1.05;;;3.40;84.90;;;;;;4989483;28;20469;-77
2021/11/30 08:02:43;;;;;;;2.53;0.95;;;3.40;84.90;;;;;;4989274;28;20054;-77
2021/11/30 08:05:12;;;;;;;2.15;1.05;;;3.40;84.90;;;;;;4984123;28;20042;-77
2021/11/30 08:07:39;;;;;;;2.40;0.68;;;3.40;85.10;;;;;;4987925;28;20060;-75
2021/11/30 08:10:10;;;;;;;3.20;0.98;;;3.40;85.00;;;;;;4986523;28;20042;-77
2021/11/30 08:12:37;;;;;;;3.80;1.77;;;3.40;85.00;;;;;;4987182;28;20073;-77
2021/11/30 08:15:06;;;;;;;2.58;1.60;;;3.40;84.90;;;;;;4988270;28;20046;-75
2021/11/30 08:17:33;;;;;;;2.17;1.00;;;3.40;85.10;;;;;;4986554;28;20046;-76
2021/11/30 08:20:00;;;;;;;2.95;1.15;;;3.40;85.30;;;;;;4989919;28;20046;-77
2021/11/30 08:22:34;;;;;;;1.80;1.08;;;3.40;85.30;;;;;;4985045;28;20054;-77
2021/11/30 08:25:01;;;;;;;2.33;1.02;;;3.50;85.30;;;;;;4986050;28;20143;-74
2021/11/30 08:27:34;;;;;;;1.70;0.60;;;3.40;85.40;;;;;;4985061;28;20058;-74
2021/11/30 08:30:02;;;;;;;2.38;0.90;;;3.40;85.70;;;;;;4986389;28;20049;-74
2021/11/30 08:32:30;;;;;;;1.67;1.00;;;3.50;85.50;;;;;;4987597;28;20070;-78
2021/11/30 08:34:59;;;;;;;2.92;1.25;;;3.40;85.60;;;;;;4977824;28;20051;-76
2021/11/30 08:37:26;;;;;;;1.50;1.20;;;3.50;85.70;;;;;;4985724;28;20060;-76
2021/11/30 08:39:54;;;;;;;4.15;1.85;;;3.50;85.80;;;;;;4985296;28;20094;-78
2021/11/30 08:42:22;;;;;;;3.08;1.45;;;3.50;85.80;;;;;;4985550;28;20046;-78
2021/11/30 08:44:51;;;;;;;4.25;2.00;;;3.50;85.70;;;;;;4984362;28;20127;-77
2021/11/30 08:47:19;;;;;;;3.92;1.38;;;3.60;85.80;;;;;;4984309;28;20165;-78
2021/11/30 08:49:48;;;;;;;3.95;1.38;;;3.50;86.10;;;;;;4985884;28;20173;-78
2021/11/30 08:52:19;;;;;;;7.25;2.25;;;3.60;86.00;;;;;;4986875;28;20054;-77
2021/11/30 08:54:47;;;;;;;6.03;2.88;;;3.60;86.00;;;;;;4983215;28;20051;-78
2021/11/30 08:57:15;;;;;;;5.22;1.90;;;3.70;86.00;;;;;;4985667;28;20061;-76
2021/11/30 08:59:42;;;;;;;4.70;2.20;;;3.70;85.90;;;;;;4982077;28;20043;-77
2021/11/30 09:02:09;;;;;;;7.22;2.30;;;3.70;85.90;;;;;;4986998;28;20125;-68
2021/11/30 09:04:43;;;;;;;3.30;1.63;;;3.70;85.80;;;;;;4986203;28;20042;-67
2021/11/30 09:07:12;;;;;;;5.20;1.30;;;3.70;85.90;;;;;;4988243;28;20042;-67
2021/11/30 09:09:39;;;;;;;5.22;1.67;;;3.70;86.00;;;;;;4987821;28;20173;-68
2021/11/30 09:12:07;;;;;;;4.60;1.33;;;3.70;86.10;;;;;;4987041;28;20042;-69
2021/11/30 09:14:34;;;;;;;4.32;1.70;;;3.70;85.90;;;;;;4990678;28;20133;-67
2021/11/30 09:17:01;;;;;;;5.55;1.90;;;3.70;86.00;;;;;;4988033;28;20050;-67
2021/11/30 09:19:30;;;;;;;3.30;1.60;;;3.70;85.90;;;;;;4988143;28;20480;-69
2021/11/30 09:21:57;;;;;;;5.90;1.92;;;3.80;86.00;;;;;;4986550;28;20057;-67
2021/11/30 09:24:26;;;;;;;5.25;2.47;;;3.70;86.00;;;;;;4987271;28;20058;-68
2021/11/30 09:26:53;;;;;;;4.55;1.42;;;3.80;86.00;;;;;;4989974;28;20047;-69
2021/11/30 09:29:20;;;;;;;2.10;0.90;;;3.70;86.10;;;;;;4988337;28;20558;-68
2021/11/30 09:31:47;;;;;;;6.07;1.38;;;3.80;86.10;;;;;;4990676;28;20053;-68
2021/11/30 09:34:14;;;;;;;4.75;1.30;;;3.80;86.10;;;;;;4988698;28;20056;-70
2021/11/30 09:36:45;;;;;;;2.92;1.48;;;3.80;86.00;;;;;;4989398;28;20057;-68
2021/11/30 09:39:12;;;;;;;5.82;2.03;;;3.80;85.90;;;;;;4989169;28;20058;-68
2021/11/30 09:41:41;;;;;;;1.88;0.60;;;3.80;85.90;;;;;;4987639;28;20068;-67
2021/11/30 09:44:10;;;;;;;3.53;1.23;;;3.80;85.90;;;;;;4988782;28;20068;-68
2021/11/30 09:46:37;;;;;;;3.10;0.98;;;3.80;85.90;;;;;;4987563;28;20381;-67
2021/11/30 09:49:04;;;;;;;2.40;0.77;;;3.70;86.00;;;;;;4984972;28;20055;-67
2021/11/30 09:51:31;;;;;;;10.05;1.60;;;3.80;85.90;;;;;;4987521;28;20050;-67
2021/11/30 09:53:58;;;;;;;2.88;1.02;;;3.80;85.90;;;;;;4988585;28;20049;-68
2021/11/30 09:56:25;;;;;;;5.07;1.58;;;3.80;85.90;;;;;;4984592;28;20137;-68
2021/11/30 09:58:54;;;;;;;2.50;0.90;;;3.70;85.90;;;;;;4985939;28;20049;-67
2021/11/30 10:01:21;;;;;;;2.55;0.93;;;3.70;85.90;;;;;;4986525;28;20061;-69
2021/11/30 10:03:48;;;;;;;3.05;1.10;;;3.80;85.90;;;;;;4989868;28;20136;-67
2021/11/30 10:06:15;;;;;;;4.13;1.25;;;3.70;86.00;;;;;;4985023;28;20085;-68
2021/11/30 10:08:44;;;;;;;3.03;1.10;;;3.80;85.90;;;;;;4988239;28;20131;-69
2021/11/30 10:11:27;;;;;;;2.28;0.90;;;3.80;86.00;;;;;;4983741;28;20038;-68
2021/11/30 10:14:14;;;;;;;2.40;0.93;;;3.80;85.90;;;;;;4985616;28;20060;-68
2021/11/30 10:16:41;;;;;;;2.28;0.77;;;3.80;86.00;;;;;;4967965;28;20414;-69
2021/11/30 10:19:08;;;;;;;1.83;0.90;;;3.80;86.10;;;;;;4989785;28;20411;-69
2021/11/30 10:21:36;;;;;;;2.25;1.17;;;3.90;86.10;;;;;;4985210;28;20281;-67
2021/11/30 10:24:06;;;;;;;4.80;0.90;;;3.90;86.20;;;;;;4986210;28;20113;-68
2021/11/30 10:26:35;;;;;;;1.15;0.77;;;3.90;86.30;;;;;;4984644;28;20050;-67
2021/11/30 10:29:05;;;;;;;0.98;0.40;;;3.90;86.40;;;;;;4984813;28;20069;-68
2021/11/30 10:31:36;;;;;;;1.87;0.83;;;3.90;86.50;;;;;;4987599;28;20046;-68
2021/11/30 10:34:11;;;;;;;1.40;0.80;;;3.90;86.60;;;;;;4987119;28;20049;-69
2021/11/30 10:36:45;;;;;;;2.55;0.90;;;4.00;86.70;;;;;;4987850;28;20077;-67
2021/11/30 10:39:20;;;;;;;3.67;1.33;;;4.00;86.70;;;;;;4985873;28;20519;-67
2021/11/30 10:41:48;;;;;;;2.78;0.90;;;4.00;86.70;;;;;;4984927;28;20054;-68
2021/11/30 10:44:15;;;;;;;3.42;0.93;;;4.10;86.80;;;;;;4987331;28;20500;-67
2021/11/30 10:46:44;;;;;;;2.92;1.08;;;4.10;86.80;;;;;;4986996;28;20486;-68
2021/11/30 10:49:12;;;;;;;2.60;0.73;;;4.10;86.80;;;;;;4986790;28;20055;-68
2021/11/30 10:51:44;;;;;;;0.77;0.40;;;4.20;86.70;;;;;;4988481;28;20060;-67
2021/11/30 10:54:12;;;;;;;1.08;0.65;;;4.20;86.90;;;;;;4987893;28;20042;-69
2021/11/30 10:56:43;;;;;;;2.47;0.68;;;4.20;87.00;;;;;;4986232;28;20074;-68
2021/11/30 10:59:20;;;;;;;1.40;0.63;;;4.20;86.90;;;;;;4987780;28;20134;-67
2021/11/30 11:01:49;;;;;;;1.70;0.50;;;4.20;87.00;;;;;;4980597;28;20057;-67
2021/11/30 11:04:19;;;;;;;1.38;0.30;;;4.20;87.00;;;;;;4984051;28;20137;-67
2021/11/30 11:07:05;;;;;;;1.10;0.47;;;4.20;87.10;;;;;;4986441;28;20073;-67
2021/11/30 11:09:39;;;;;;;1.42;0.47;;;4.20;87.10;;;;;;4988469;28;20046;-69
2021/11/30 11:12:08;;;;;;;0.65;0.30;;;4.30;87.10;;;;;;4986062;28;20046;-69
2021/11/30 11:14:44;;;;;;;1.05;0.35;;;4.30;87.10;;;;;;4987488;28;20136;-69
2021/11/30 11:17:26;;;;;;;2.67;0.50;;;4.40;87.00;;;;;;4987011;28;20046;-67
2021/11/30 11:19:54;;;;;;;2.17;0.60;;;4.30;87.10;;;;;;4987057;28;20046;-66
2021/11/30 11:22:23;;;;;;;1.38;0.40;;;4.30;87.30;;;;;;4988361;28;20100;-67
2021/11/30 11:24:51;;;;;;;0.60;0.30;;;4.40;87.20;;;;;;4990772;28;20056;-68
2021/11/30 11:27:28;;;;;;;1.42;0.70;;;4.40;87.20;;;;;;4990412;28;20130;-69
2021/11/30 11:29:55;;;;;;;1.55;0.50;;;4.40;87.20;;;;;;4988517;28;20050;-67
2021/11/30 11:32:24;;;;;;;0.77;0.50;;;4.40;87.30;;;;;;4988831;28;20062;-68
2021/11/30 11:34:51;;;;;;;0.73;0.30;;;4.40;87.40;;;;;;4991475;28;20047;-68
2021/11/30 11:37:19;;;;;;;0.52;0.20;;;4.40;87.50;;;;;;4989597;28;20152;-67
2021/11/30 11:39:46;;;;;;;0.52;0.30;;;4.50;87.60;;;;;;4991084;28;20043;-66
2021/11/30 11:42:15;;;;;;;0.55;0.30;;;4.50;87.70;;;;;;4990021;28;20061;-68
2021/11/30 11:44:42;;;;;;;0.57;0.40;;;4.50;87.70;;;;;;4988574;28;20050;-68
2021/11/30 11:47:13;;;;;;;0.20;0.20;;;4.50;87.70;;;;;;4986565;28;20050;-68
2021/11/30 11:49:45;;;;;;;0.60;0.13;;;4.60;87.70;;;;;;4987581;28;20441;-67
2021/11/30 11:52:21;;;;;;;0.52;0.20;;;4.60;87.60;;;;;;4988463;28;20074;-67
2021/11/30 11:54:59;;;;;;;0.63;0.35;;;4.70;87.70;;;;;;4987191;28;20046;-68
2021/11/30 11:57:27;;;;;;;1.05;0.40;;;4.70;87.70;;;;;;4987205;28;20538;-68
2021/11/30 11:59:54;;;;;;;0.70;0.32;;;4.70;87.70;;;;;;4989560;28;20069;-69
2021/11/30 12:02:24;;;;;;;0.43;0.30;;;4.70;87.70;;;;;;4981064;28;21745;-69
2021/11/30 12:04:57;;;;;;;0.38;0.30;;;4.70;87.70;;;;;;4985017;28;20047;-70
2021/11/30 12:07:26;;;;;;;0.80;0.40;;;4.70;87.90;;;;;;4987283;28;20047;-67
2021/11/30 12:10:15;;;;;;;0.73;0.28;;;4.70;88.00;;;;;;4989514;28;20554;-71
2021/11/30 12:12:54;;;;;;;2.03;0.43;;;4.70;88.00;;;;;;4985065;28;20050;-67
2021/11/30 12:15:23;;;;;;;3.78;0.77;;;4.80;87.80;;;;;;4971613;28;20047;-67
2021/11/30 12:17:50;;;;;;;0.93;0.35;;;4.80;87.90;;;;;;4990458;28;20050;-68
2021/11/30 12:20:19;;;;;;;0.35;0.30;;;4.80;88.00;;;;;;4986982;28;20054;-69
2021/11/30 12:22:54;;;;;;;2.45;0.75;;;4.80;87.90;;;;;;4989888;28;20051;-69
2021/11/30 12:25:32;;;;;;;1.48;0.55;;;4.90;87.90;;;;;;4989255;28;20153;-69
2021/11/30 12:28:01;;;;;;;2.78;0.60;;;4.80;87.90;;;;;;4990693;28;20042;-68
2021/11/30 12:30:43;;;;;;;2.80;0.90;;;4.90;88.00;;;;;;4988233;28;20595;-68
2021/11/30 12:33:16;;;;;;;3.17;0.90;;;4.90;88.00;;;;;;4985809;28;20046;-68
2021/11/30 12:35:55;;;;;;;3.10;0.93;;;4.90;88.00;;;;;;4988825;28;20092;-69
2021/11/30 12:38:33;;;;;;;1.73;0.70;;;4.90;88.10;;;;;;4989662;28;20155;-68
2021/11/30 12:41:02;;;;;;;2.50;1.10;;;4.90;88.10;;;;;;4990700;28;20183;-68
2021/11/30 12:43:45;;;;;;;1.45;0.90;;;4.90;88.20;;;;;;4991173;28;20073;-69
2021/11/30 12:46:12;;;;;;;3.00;1.00;;;4.90;88.30;;;;;;4989682;28;20612;-68
2021/11/30 12:48:41;;;;;;;2.28;0.90;;;5.00;88.30;;;;;;4988192;28;20100;-68
2021/11/30 12:51:28;;;;;;;2.00;0.88;;;5.00;88.30;;;;;;4988792;28;20058;-67
2021/11/30 12:53:57;;;;;;;2.17;0.85;;;5.00;88.40;;;;;;4988806;28;20076;-68
2021/11/30 12:56:44;;;;;;;2.67;1.00;;;5.00;88.30;;;;;;4988182;28;20480;-70
2021/11/30 12:59:11;;;;;;;2.97;1.50;;;5.00;88.50;;;;;;4988784;28;20054;-68
2021/11/30 13:01:40;;;;;;;2.30;0.90;;;5.00;88.40;;;;;;4986404;28;20066;-67
2021/11/30 13:04:37;;;;;;;1.15;0.52;;;5.10;88.50;;;;;;4988934;28;20051;-69
2021/11/30 13:07:07;;;;;;;1.90;0.52;;;5.10;88.40;;;;;;5018752;28;20045;-67
2021/11/30 13:09:39;;;;;;;1.33;0.47;;;5.20;88.50;;;;;;4994269;28;20480;-68
2021/11/30 13:12:06;;;;;;;0.38;0.22;;;5.20;88.40;;;;;;4986481;28;20074;-67
2021/11/30 13:14:36;;;;;;;2.97;0.93;;;5.20;88.30;;;;;;4986136;28;20049;-68